sensor_id;sensor_type;location;lat;lon;timestamp;P1;durP1;ratioP1;P2;durP2;ratioP2
1577;SDS011;57623;53.608;10.004;2024-02-28T00:00:31;25.07;;;20.83;;
1577;SDS011;57623;53.608;10.004;2024-02-28T00:02:59;26.87;;;19.20;;
1577;SDS011;57623;53.608;10.004;2024-02-28T00:05:28;27.23;;;19.43;;
1577;SDS011;57623;53.608;10.004;2024-02-28T00:07:56;27.40;;;20.47;;
1577;SDS011;57623;53.608;10.004;2024-02-28T00:10:24;27.93;;;19.33;;
1577;SDS011;57623;53.608;10.004;2024-02-28T00:12:52;27.23;;;21.37;;
1577;SDS011;57623;53.608;10.004;2024-02-28T00:15:20;28.40;;;21.30;;
1577;SDS011;57623;53.608;10.004;2024-02-28T00:17:51;27.13;;;21.20;;
1577;SDS011;57623;53.608;10.004;2024-02-28T00:20:19;28.70;;;21.20;;
1577;SDS011;57623;53.608;10.004;2024-02-28T00:22:49;26.77;;;20.27;;
1577;SDS011;57623;53.608;10.004;2024-02-28T00:25:17;29.43;;;20.87;;
1577;SDS011;57623;53.608;10.004;2024-02-28T00:27:45;29.37;;;22.00;;
1577;SDS011;57623;53.608;10.004;2024-02-28T00:30:13;31.17;;;22.60;;
1577;SDS011;57623;53.608;10.004;2024-02-28T00:32:41;31.90;;;21.50;;
1577;SDS011;57623;53.608;10.004;2024-02-28T00:35:09;29.50;;;21.13;;
1577;SDS011;57623;53.608;10.004;2024-02-28T00:37:37;30.80;;;21.60;;
1577;SDS011;57623;53.608;10.004;2024-02-28T00:40:09;31.50;;;21.53;;
1577;SDS011;57623;53.608;10.004;2024-02-28T00:42:37;28.93;;;19.87;;
1577;SDS011;57623;53.608;10.004;2024-02-28T00:45:08;30.20;;;21.20;;
1577;SDS011;57623;53.608;10.004;2024-02-28T00:47:36;30.37;;;21.20;;
1577;SDS011;57623;53.608;10.004;2024-02-28T00:50:06;29.50;;;20.30;;
1577;SDS011;57623;53.608;10.004;2024-02-28T00:52:35;31.17;;;20.57;;
1577;SDS011;57623;53.608;10.004;2024-02-28T00:55:03;30.80;;;21.10;;
1577;SDS011;57623;53.608;10.004;2024-02-28T00:57:33;29.17;;;20.60;;
1577;SDS011;57623;53.608;10.004;2024-02-28T01:00:01;29.60;;;20.10;;
1577;SDS011;57623;53.608;10.004;2024-02-28T01:02:31;31.17;;;21.93;;
1577;SDS011;57623;53.608;10.004;2024-02-28T01:04:59;31.93;;;21.50;;
1577;SDS011;57623;53.608;10.004;2024-02-28T01:07:27;30.73;;;20.30;;
1577;SDS011;57623;53.608;10.004;2024-02-28T01:09:55;32.77;;;22.17;;
1577;SDS011;57623;53.608;10.004;2024-02-28T01:12:23;29.90;;;20.57;;
1577;SDS011;57623;53.608;10.004;2024-02-28T01:14:53;29.90;;;19.93;;
1577;SDS011;57623;53.608;10.004;2024-02-28T01:17:21;29.93;;;20.70;;
1577;SDS011;57623;53.608;10.004;2024-02-28T01:19:49;34.07;;;21.47;;
1577;SDS011;57623;53.608;10.004;2024-02-28T01:22:17;29.83;;;19.80;;
1577;SDS011;57623;53.608;10.004;2024-02-28T01:24:45;31.60;;;20.30;;
1577;SDS011;57623;53.608;10.004;2024-02-28T01:27:13;33.63;;;22.23;;
1577;SDS011;57623;53.608;10.004;2024-02-28T01:29:41;30.20;;;20.83;;
1577;SDS011;57623;53.608;10.004;2024-02-28T01:32:10;30.70;;;19.97;;
1577;SDS011;57623;53.608;10.004;2024-02-28T01:34:38;28.63;;;20.33;;
1577;SDS011;57623;53.608;10.004;2024-02-28T01:37:06;30.70;;;20.07;;
1577;SDS011;57623;53.608;10.004;2024-02-28T01:39:34;31.30;;;20.23;;
1577;SDS011;57623;53.608;10.004;2024-02-28T01:42:02;29.20;;;20.30;;
1577;SDS011;57623;53.608;10.004;2024-02-28T01:44:31;30.63;;;20.70;;
1577;SDS011;57623;53.608;10.004;2024-02-28T01:47:04;27.27;;;18.97;;
1577;SDS011;57623;53.608;10.004;2024-02-28T01:49:34;28.80;;;20.63;;
1577;SDS011;57623;53.608;10.004;2024-02-28T01:52:02;27.80;;;19.47;;
1577;SDS011;57623;53.608;10.004;2024-02-28T01:54:31;28.10;;;19.20;;
1577;SDS011;57623;53.608;10.004;2024-02-28T01:57:02;27.40;;;19.10;;
1577;SDS011;57623;53.608;10.004;2024-02-28T01:59:30;27.70;;;18.67;;
1577;SDS011;57623;53.608;10.004;2024-02-28T02:01:59;29.90;;;19.57;;
1577;SDS011;57623;53.608;10.004;2024-02-28T02:04:27;30.53;;;20.43;;
1577;SDS011;57623;53.608;10.004;2024-02-28T02:06:57;30.63;;;20.30;;
1577;SDS011;57623;53.608;10.004;2024-02-28T02:09:26;27.23;;;19.07;;
1577;SDS011;57623;53.608;10.004;2024-02-28T02:11:54;27.97;;;18.77;;
1577;SDS011;57623;53.608;10.004;2024-02-28T02:14:22;26.50;;;18.80;;
1577;SDS011;57623;53.608;10.004;2024-02-28T02:16:50;26.07;;;17.30;;
1577;SDS011;57623;53.608;10.004;2024-02-28T02:19:18;29.67;;;19.70;;
1577;SDS011;57623;53.608;10.004;2024-02-28T02:21:49;26.80;;;18.43;;
1577;SDS011;57623;53.608;10.004;2024-02-28T02:24:20;25.40;;;17.13;;
1577;SDS011;57623;53.608;10.004;2024-02-28T02:26:49;25.83;;;17.30;;
1577;SDS011;57623;53.608;10.004;2024-02-28T02:29:18;24.70;;;16.33;;
1577;SDS011;57623;53.608;10.004;2024-02-28T02:31:46;26.53;;;16.30;;
1577;SDS011;57623;53.608;10.004;2024-02-28T02:34:14;26.30;;;17.40;;
1577;SDS011;57623;53.608;10.004;2024-02-28T02:36:42;24.57;;;16.63;;
1577;SDS011;57623;53.608;10.004;2024-02-28T02:39:10;28.20;;;17.47;;
1577;SDS011;57623;53.608;10.004;2024-02-28T02:41:39;23.50;;;16.10;;
1577;SDS011;57623;53.608;10.004;2024-02-28T02:44:08;27.63;;;17.30;;
1577;SDS011;57623;53.608;10.004;2024-02-28T02:46:36;24.77;;;15.67;;
1577;SDS011;57623;53.608;10.004;2024-02-28T02:49:05;26.03;;;16.33;;
1577;SDS011;57623;53.608;10.004;2024-02-28T02:51:33;27.57;;;16.83;;
1577;SDS011;57623;53.608;10.004;2024-02-28T02:54:01;23.70;;;16.10;;
1577;SDS011;57623;53.608;10.004;2024-02-28T02:56:29;26.43;;;17.20;;
1577;SDS011;57623;53.608;10.004;2024-02-28T02:58:58;27.30;;;17.43;;
1577;SDS011;57623;53.608;10.004;2024-02-28T03:01:26;24.13;;;15.90;;
1577;SDS011;57623;53.608;10.004;2024-02-28T03:03:54;22.97;;;15.40;;
1577;SDS011;57623;53.608;10.004;2024-02-28T03:06:22;26.83;;;17.10;;
1577;SDS011;57623;53.608;10.004;2024-02-28T03:08:50;21.10;;;14.93;;
1577;SDS011;57623;53.608;10.004;2024-02-28T03:11:19;21.67;;;15.53;;
1577;SDS011;57623;53.608;10.004;2024-02-28T03:13:47;23.30;;;15.70;;
1577;SDS011;57623;53.608;10.004;2024-02-28T03:16:16;22.80;;;14.80;;
1577;SDS011;57623;53.608;10.004;2024-02-28T03:18:44;24.37;;;15.07;;
1577;SDS011;57623;53.608;10.004;2024-02-28T03:21:12;22.23;;;14.87;;
1577;SDS011;57623;53.608;10.004;2024-02-28T03:23:40;23.80;;;14.70;;
1577;SDS011;57623;53.608;10.004;2024-02-28T03:26:08;23.47;;;14.90;;
1577;SDS011;57623;53.608;10.004;2024-02-28T03:28:36;22.43;;;15.07;;
1577;SDS011;57623;53.608;10.004;2024-02-28T03:31:04;22.27;;;14.87;;
1577;SDS011;57623;53.608;10.004;2024-02-28T03:33:33;21.93;;;14.77;;
1577;SDS011;57623;53.608;10.004;2024-02-28T03:36:02;20.00;;;14.30;;
1577;SDS011;57623;53.608;10.004;2024-02-28T03:38:30;24.23;;;16.10;;
1577;SDS011;57623;53.608;10.004;2024-02-28T03:40:58;23.83;;;16.07;;
1577;SDS011;57623;53.608;10.004;2024-02-28T03:43:26;24.63;;;14.93;;
1577;SDS011;57623;53.608;10.004;2024-02-28T03:45:54;23.20;;;14.57;;
1577;SDS011;57623;53.608;10.004;2024-02-28T03:48:22;21.80;;;14.30;;
1577;SDS011;57623;53.608;10.004;2024-02-28T03:50:51;22.40;;;14.83;;
1577;SDS011;57623;53.608;10.004;2024-02-28T03:53:19;22.70;;;14.43;;
1577;SDS011;57623;53.608;10.004;2024-02-28T03:55:47;21.60;;;14.20;;
1577;SDS011;57623;53.608;10.004;2024-02-28T03:58:15;20.97;;;13.93;;
1577;SDS011;57623;53.608;10.004;2024-02-28T04:00:43;21.80;;;13.90;;
1577;SDS011;57623;53.608;10.004;2024-02-28T04:03:11;24.10;;;15.10;;
1577;SDS011;57623;53.608;10.004;2024-02-28T04:05:40;22.00;;;14.20;;
1577;SDS011;57623;53.608;10.004;2024-02-28T04:08:09;22.60;;;13.40;;
1577;SDS011;57623;53.608;10.004;2024-02-28T04:10:37;22.53;;;14.33;;
1577;SDS011;57623;53.608;10.004;2024-02-28T04:13:05;24.17;;;14.87;;
1577;SDS011;57623;53.608;10.004;2024-02-28T04:15:33;20.53;;;13.90;;
1577;SDS011;57623;53.608;10.004;2024-02-28T04:18:02;22.87;;;15.27;;
1577;SDS011;57623;53.608;10.004;2024-02-28T04:20:30;21.30;;;14.13;;
1577;SDS011;57623;53.608;10.004;2024-02-28T04:22:58;22.33;;;15.30;;
1577;SDS011;57623;53.608;10.004;2024-02-28T04:25:27;23.33;;;15.23;;
1577;SDS011;57623;53.608;10.004;2024-02-28T04:27:55;24.47;;;15.80;;
1577;SDS011;57623;53.608;10.004;2024-02-28T04:30:23;25.27;;;15.53;;
1577;SDS011;57623;53.608;10.004;2024-02-28T04:32:51;26.00;;;16.07;;
1577;SDS011;57623;53.608;10.004;2024-02-28T04:35:20;22.50;;;14.87;;
1577;SDS011;57623;53.608;10.004;2024-02-28T04:37:48;25.27;;;16.77;;
1577;SDS011;57623;53.608;10.004;2024-02-28T04:40:16;21.47;;;14.33;;
1577;SDS011;57623;53.608;10.004;2024-02-28T04:42:45;21.73;;;14.50;;
1577;SDS011;57623;53.608;10.004;2024-02-28T04:45:13;21.27;;;13.67;;
1577;SDS011;57623;53.608;10.004;2024-02-28T04:47:41;24.40;;;16.63;;
1577;SDS011;57623;53.608;10.004;2024-02-28T04:50:10;22.47;;;14.30;;
1577;SDS011;57623;53.608;10.004;2024-02-28T04:52:39;26.67;;;16.20;;
1577;SDS011;57623;53.608;10.004;2024-02-28T04:55:07;24.43;;;15.40;;
1577;SDS011;57623;53.608;10.004;2024-02-28T04:57:35;23.33;;;14.53;;
1577;SDS011;57623;53.608;10.004;2024-02-28T05:00:06;25.70;;;16.17;;
1577;SDS011;57623;53.608;10.004;2024-02-28T05:02:35;25.37;;;15.50;;
1577;SDS011;57623;53.608;10.004;2024-02-28T05:05:03;23.43;;;15.53;;
1577;SDS011;57623;53.608;10.004;2024-02-28T05:07:32;25.90;;;16.23;;
1577;SDS011;57623;53.608;10.004;2024-02-28T05:10:00;25.20;;;15.77;;
1577;SDS011;57623;53.608;10.004;2024-02-28T05:12:27;25.53;;;15.87;;
1577;SDS011;57623;53.608;10.004;2024-02-28T05:14:55;25.00;;;16.13;;
1577;SDS011;57623;53.608;10.004;2024-02-28T05:17:24;24.60;;;16.20;;
1577;SDS011;57623;53.608;10.004;2024-02-28T05:19:53;23.57;;;15.30;;
1577;SDS011;57623;53.608;10.004;2024-02-28T05:22:23;24.47;;;15.43;;
1577;SDS011;57623;53.608;10.004;2024-02-28T05:24:51;24.43;;;15.60;;
1577;SDS011;57623;53.608;10.004;2024-02-28T05:27:20;22.97;;;15.13;;
1577;SDS011;57623;53.608;10.004;2024-02-28T05:29:48;25.07;;;16.57;;
1577;SDS011;57623;53.608;10.004;2024-02-28T05:32:16;27.37;;;17.87;;
1577;SDS011;57623;53.608;10.004;2024-02-28T05:34:46;26.70;;;16.77;;
1577;SDS011;57623;53.608;10.004;2024-02-28T05:37:15;24.50;;;15.80;;
1577;SDS011;57623;53.608;10.004;2024-02-28T05:39:44;26.70;;;15.90;;
1577;SDS011;57623;53.608;10.004;2024-02-28T05:42:12;24.70;;;16.40;;
1577;SDS011;57623;53.608;10.004;2024-02-28T05:44:44;25.23;;;16.50;;
1577;SDS011;57623;53.608;10.004;2024-02-28T05:47:11;24.70;;;15.90;;
1577;SDS011;57623;53.608;10.004;2024-02-28T05:49:39;28.07;;;17.17;;
1577;SDS011;57623;53.608;10.004;2024-02-28T05:52:09;24.70;;;15.20;;
1577;SDS011;57623;53.608;10.004;2024-02-28T05:54:37;28.27;;;17.37;;
1577;SDS011;57623;53.608;10.004;2024-02-28T05:57:05;26.97;;;16.90;;
1577;SDS011;57623;53.608;10.004;2024-02-28T05:59:33;25.37;;;17.53;;
1577;SDS011;57623;53.608;10.004;2024-02-28T06:02:01;29.23;;;17.33;;
1577;SDS011;57623;53.608;10.004;2024-02-28T06:04:29;27.10;;;17.00;;
1577;SDS011;57623;53.608;10.004;2024-02-28T06:06:57;25.67;;;16.77;;
1577;SDS011;57623;53.608;10.004;2024-02-28T06:09:27;25.00;;;16.87;;
1577;SDS011;57623;53.608;10.004;2024-02-28T06:11:55;28.07;;;17.00;;
1577;SDS011;57623;53.608;10.004;2024-02-28T06:14:26;27.93;;;17.77;;
1577;SDS011;57623;53.608;10.004;2024-02-28T06:16:54;27.47;;;18.70;;
1577;SDS011;57623;53.608;10.004;2024-02-28T06:19:21;24.37;;;15.93;;
1577;SDS011;57623;53.608;10.004;2024-02-28T06:21:49;26.60;;;17.50;;
1577;SDS011;57623;53.608;10.004;2024-02-28T06:24:18;23.57;;;16.20;;
1577;SDS011;57623;53.608;10.004;2024-02-28T06:26:47;28.17;;;18.30;;
1577;SDS011;57623;53.608;10.004;2024-02-28T06:29:15;27.27;;;17.43;;
1577;SDS011;57623;53.608;10.004;2024-02-28T06:31:43;26.47;;;16.50;;
1577;SDS011;57623;53.608;10.004;2024-02-28T06:34:11;24.27;;;16.30;;
1577;SDS011;57623;53.608;10.004;2024-02-28T06:36:40;25.03;;;16.23;;
1577;SDS011;57623;53.608;10.004;2024-02-28T06:39:08;24.37;;;16.53;;
1577;SDS011;57623;53.608;10.004;2024-02-28T06:41:36;21.90;;;15.70;;
1577;SDS011;57623;53.608;10.004;2024-02-28T06:44:06;22.07;;;15.90;;
1577;SDS011;57623;53.608;10.004;2024-02-28T06:46:34;24.40;;;15.50;;
1577;SDS011;57623;53.608;10.004;2024-02-28T06:49:02;20.77;;;14.83;;
1577;SDS011;57623;53.608;10.004;2024-02-28T06:51:30;20.20;;;15.07;;
1577;SDS011;57623;53.608;10.004;2024-02-28T06:53:58;20.60;;;14.47;;
1577;SDS011;57623;53.608;10.004;2024-02-28T06:56:26;21.63;;;14.70;;
1577;SDS011;57623;53.608;10.004;2024-02-28T06:58:54;21.30;;;15.23;;
1577;SDS011;57623;53.608;10.004;2024-02-28T07:01:23;19.60;;;13.33;;
1577;SDS011;57623;53.608;10.004;2024-02-28T07:03:51;18.57;;;12.50;;
1577;SDS011;57623;53.608;10.004;2024-02-28T07:06:19;22.07;;;14.30;;
1577;SDS011;57623;53.608;10.004;2024-02-28T07:08:48;18.57;;;13.80;;
1577;SDS011;57623;53.608;10.004;2024-02-28T07:11:16;18.27;;;13.60;;
1577;SDS011;57623;53.608;10.004;2024-02-28T07:13:44;20.47;;;14.23;;
1577;SDS011;57623;53.608;10.004;2024-02-28T07:16:12;17.97;;;14.07;;
1577;SDS011;57623;53.608;10.004;2024-02-28T07:18:41;20.27;;;12.90;;
1577;SDS011;57623;53.608;10.004;2024-02-28T07:21:09;19.40;;;13.90;;
1577;SDS011;57623;53.608;10.004;2024-02-28T07:23:38;18.80;;;14.63;;
1577;SDS011;57623;53.608;10.004;2024-02-28T07:26:07;16.67;;;12.50;;
1577;SDS011;57623;53.608;10.004;2024-02-28T07:28:48;18.73;;;12.73;;
1577;SDS011;57623;53.608;10.004;2024-02-28T07:31:16;18.77;;;13.33;;
1577;SDS011;57623;53.608;10.004;2024-02-28T07:33:46;20.33;;;12.87;;
1577;SDS011;57623;53.608;10.004;2024-02-28T07:36:14;17.10;;;12.80;;
1577;SDS011;57623;53.608;10.004;2024-02-28T07:38:42;18.87;;;13.87;;
1577;SDS011;57623;53.608;10.004;2024-02-28T07:41:10;18.50;;;13.90;;
1577;SDS011;57623;53.608;10.004;2024-02-28T07:43:41;18.57;;;13.13;;
1577;SDS011;57623;53.608;10.004;2024-02-28T07:46:10;19.40;;;13.30;;
1577;SDS011;57623;53.608;10.004;2024-02-28T07:48:38;16.97;;;12.90;;
1577;SDS011;57623;53.608;10.004;2024-02-28T07:51:08;18.23;;;13.47;;
1577;SDS011;57623;53.608;10.004;2024-02-28T07:53:37;19.17;;;14.77;;
1577;SDS011;57623;53.608;10.004;2024-02-28T07:56:06;20.30;;;14.70;;
1577;SDS011;57623;53.608;10.004;2024-02-28T07:58:34;18.23;;;13.60;;
1577;SDS011;57623;53.608;10.004;2024-02-28T08:01:02;20.70;;;14.07;;
1577;SDS011;57623;53.608;10.004;2024-02-28T08:03:31;22.47;;;15.37;;
1577;SDS011;57623;53.608;10.004;2024-02-28T08:06:01;20.50;;;14.30;;
1577;SDS011;57623;53.608;10.004;2024-02-28T08:08:30;21.07;;;15.17;;
1577;SDS011;57623;53.608;10.004;2024-02-28T08:10:58;21.50;;;15.37;;
1577;SDS011;57623;53.608;10.004;2024-02-28T08:13:26;25.93;;;15.73;;
1577;SDS011;57623;53.608;10.004;2024-02-28T08:15:55;20.13;;;14.60;;
1577;SDS011;57623;53.608;10.004;2024-02-28T08:18:23;22.27;;;15.67;;
1577;SDS011;57623;53.608;10.004;2024-02-28T08:20:52;23.07;;;16.00;;
1577;SDS011;57623;53.608;10.004;2024-02-28T08:23:23;23.80;;;15.30;;
1577;SDS011;57623;53.608;10.004;2024-02-28T08:25:54;21.60;;;17.50;;
1577;SDS011;57623;53.608;10.004;2024-02-28T08:28:22;23.27;;;15.67;;
1577;SDS011;57623;53.608;10.004;2024-02-28T08:30:50;24.20;;;16.87;;
1577;SDS011;57623;53.608;10.004;2024-02-28T08:33:18;23.23;;;16.70;;
1577;SDS011;57623;53.608;10.004;2024-02-28T08:35:50;23.80;;;16.23;;
1577;SDS011;57623;53.608;10.004;2024-02-28T08:38:18;25.20;;;17.33;;
1577;SDS011;57623;53.608;10.004;2024-02-28T08:40:46;25.20;;;16.77;;
1577;SDS011;57623;53.608;10.004;2024-02-28T08:43:15;28.03;;;18.73;;
1577;SDS011;57623;53.608;10.004;2024-02-28T08:45:43;25.43;;;18.37;;
1577;SDS011;57623;53.608;10.004;2024-02-28T08:48:11;24.43;;;18.67;;
1577;SDS011;57623;53.608;10.004;2024-02-28T08:50:39;28.27;;;18.50;;
1577;SDS011;57623;53.608;10.004;2024-02-28T08:53:07;29.17;;;19.50;;
1577;SDS011;57623;53.608;10.004;2024-02-28T08:55:35;29.77;;;19.57;;
1577;SDS011;57623;53.608;10.004;2024-02-28T08:58:03;32.57;;;22.07;;
1577;SDS011;57623;53.608;10.004;2024-02-28T09:00:33;28.70;;;20.33;;
1577;SDS011;57623;53.608;10.004;2024-02-28T09:03:01;31.40;;;20.13;;
1577;SDS011;57623;53.608;10.004;2024-02-28T09:05:30;33.43;;;21.37;;
1577;SDS011;57623;53.608;10.004;2024-02-28T09:07:58;29.80;;;21.47;;
1577;SDS011;57623;53.608;10.004;2024-02-28T09:10:27;32.37;;;21.37;;
1577;SDS011;57623;53.608;10.004;2024-02-28T09:12:57;30.97;;;20.97;;
1577;SDS011;57623;53.608;10.004;2024-02-28T09:15:25;31.50;;;21.07;;
1577;SDS011;57623;53.608;10.004;2024-02-28T09:17:55;28.90;;;20.27;;
1577;SDS011;57623;53.608;10.004;2024-02-28T09:20:23;32.17;;;20.93;;
1577;SDS011;57623;53.608;10.004;2024-02-28T09:22:51;28.67;;;19.53;;
1577;SDS011;57623;53.608;10.004;2024-02-28T09:25:19;33.00;;;22.10;;
1577;SDS011;57623;53.608;10.004;2024-02-28T09:27:51;32.30;;;21.20;;
1577;SDS011;57623;53.608;10.004;2024-02-28T09:30:19;31.93;;;20.97;;
1577;SDS011;57623;53.608;10.004;2024-02-28T09:32:50;29.60;;;19.80;;
1577;SDS011;57623;53.608;10.004;2024-02-28T09:35:20;28.73;;;19.50;;
1577;SDS011;57623;53.608;10.004;2024-02-28T09:37:48;28.93;;;19.13;;
1577;SDS011;57623;53.608;10.004;2024-02-28T09:40:16;25.80;;;18.73;;
1577;SDS011;57623;53.608;10.004;2024-02-28T09:42:46;24.80;;;18.70;;
1577;SDS011;57623;53.608;10.004;2024-02-28T09:45:17;25.90;;;18.67;;
1577;SDS011;57623;53.608;10.004;2024-02-28T09:47:47;26.10;;;18.97;;
1577;SDS011;57623;53.608;10.004;2024-02-28T09:50:16;26.07;;;17.60;;
1577;SDS011;57623;53.608;10.004;2024-02-28T09:52:47;27.10;;;19.00;;
1577;SDS011;57623;53.608;10.004;2024-02-28T09:55:27;25.20;;;18.03;;
1577;SDS011;57623;53.608;10.004;2024-02-28T09:57:55;25.20;;;18.70;;
1577;SDS011;57623;53.608;10.004;2024-02-28T10:00:25;24.67;;;16.70;;
1577;SDS011;57623;53.608;10.004;2024-02-28T10:02:54;26.57;;;18.77;;
1577;SDS011;57623;53.608;10.004;2024-02-28T10:05:25;23.20;;;16.03;;
1577;SDS011;57623;53.608;10.004;2024-02-28T10:07:55;24.53;;;17.70;;
1577;SDS011;57623;53.608;10.004;2024-02-28T10:10:23;23.00;;;16.50;;
1577;SDS011;57623;53.608;10.004;2024-02-28T10:12:51;25.27;;;17.37;;
1577;SDS011;57623;53.608;10.004;2024-02-28T10:15:19;23.20;;;16.77;;
1577;SDS011;57623;53.608;10.004;2024-02-28T10:17:48;21.83;;;16.77;;
1577;SDS011;57623;53.608;10.004;2024-02-28T10:20:16;21.37;;;15.80;;
1577;SDS011;57623;53.608;10.004;2024-02-28T10:22:45;23.20;;;15.50;;
1577;SDS011;57623;53.608;10.004;2024-02-28T10:25:13;21.70;;;16.10;;
1577;SDS011;57623;53.608;10.004;2024-02-28T10:27:41;23.77;;;17.70;;
1577;SDS011;57623;53.608;10.004;2024-02-28T10:30:09;22.00;;;16.17;;
1577;SDS011;57623;53.608;10.004;2024-02-28T10:32:47;21.60;;;16.30;;
1577;SDS011;57623;53.608;10.004;2024-02-28T10:35:16;21.70;;;15.40;;
1577;SDS011;57623;53.608;10.004;2024-02-28T10:37:47;17.90;;;13.60;;
1577;SDS011;57623;53.608;10.004;2024-02-28T10:40:18;20.90;;;15.80;;
1577;SDS011;57623;53.608;10.004;2024-02-28T10:42:48;20.83;;;16.33;;
1577;SDS011;57623;53.608;10.004;2024-02-28T10:45:17;20.73;;;14.83;;
1577;SDS011;57623;53.608;10.004;2024-02-28T10:48:06;18.70;;;14.87;;
1577;SDS011;57623;53.608;10.004;2024-02-28T10:50:35;19.87;;;14.73;;
1577;SDS011;57623;53.608;10.004;2024-02-28T10:53:05;20.57;;;15.13;;
1577;SDS011;57623;53.608;10.004;2024-02-28T10:55:41;20.93;;;16.50;;
1577;SDS011;57623;53.608;10.004;2024-02-28T10:58:10;23.23;;;16.40;;
1577;SDS011;57623;53.608;10.004;2024-02-28T11:00:39;21.00;;;15.10;;
1577;SDS011;57623;53.608;10.004;2024-02-28T11:03:11;20.37;;;15.30;;
1577;SDS011;57623;53.608;10.004;2024-02-28T11:05:41;20.07;;;15.33;;
1577;SDS011;57623;53.608;10.004;2024-02-28T11:08:20;17.80;;;13.87;;
1577;SDS011;57623;53.608;10.004;2024-02-28T11:10:54;21.07;;;14.93;;
1577;SDS011;57623;53.608;10.004;2024-02-28T11:13:23;20.03;;;14.90;;
1577;SDS011;57623;53.608;10.004;2024-02-28T11:15:52;23.27;;;16.13;;
1577;SDS011;57623;53.608;10.004;2024-02-28T11:18:21;17.97;;;13.67;;
1577;SDS011;57623;53.608;10.004;2024-02-28T11:20:49;22.03;;;15.77;;
1577;SDS011;57623;53.608;10.004;2024-02-28T11:23:17;21.30;;;15.30;;
1577;SDS011;57623;53.608;10.004;2024-02-28T11:25:47;21.87;;;15.47;;
1577;SDS011;57623;53.608;10.004;2024-02-28T11:28:15;20.60;;;15.30;;
1577;SDS011;57623;53.608;10.004;2024-02-28T11:30:43;19.70;;;14.40;;
1577;SDS011;57623;53.608;10.004;2024-02-28T11:33:11;18.90;;;14.50;;
1577;SDS011;57623;53.608;10.004;2024-02-28T11:35:39;19.77;;;13.80;;
1577;SDS011;57623;53.608;10.004;2024-02-28T11:38:09;20.93;;;15.17;;
1577;SDS011;57623;53.608;10.004;2024-02-28T11:40:38;21.43;;;15.53;;
1577;SDS011;57623;53.608;10.004;2024-02-28T11:43:17;18.27;;;13.23;;
1577;SDS011;57623;53.608;10.004;2024-02-28T11:45:45;18.43;;;14.20;;
1577;SDS011;57623;53.608;10.004;2024-02-28T11:48:13;18.00;;;13.80;;
1577;SDS011;57623;53.608;10.004;2024-02-28T11:50:42;19.10;;;13.83;;
1577;SDS011;57623;53.608;10.004;2024-02-28T11:53:10;15.03;;;12.10;;
1577;SDS011;57623;53.608;10.004;2024-02-28T11:55:38;21.40;;;14.77;;
1577;SDS011;57623;53.608;10.004;2024-02-28T11:58:08;18.20;;;13.07;;
1577;SDS011;57623;53.608;10.004;2024-02-28T12:00:46;20.93;;;13.90;;
1577;SDS011;57623;53.608;10.004;2024-02-28T12:03:19;21.30;;;15.30;;
1577;SDS011;57623;53.608;10.004;2024-02-28T12:05:48;21.20;;;15.83;;
1577;SDS011;57623;53.608;10.004;2024-02-28T12:08:17;20.73;;;16.40;;
1577;SDS011;57623;53.608;10.004;2024-02-28T12:10:46;19.87;;;15.83;;
1577;SDS011;57623;53.608;10.004;2024-02-28T12:13:17;23.07;;;16.37;;
1577;SDS011;57623;53.608;10.004;2024-02-28T12:15:46;21.30;;;15.40;;
1577;SDS011;57623;53.608;10.004;2024-02-28T12:18:15;19.33;;;14.90;;
1577;SDS011;57623;53.608;10.004;2024-02-28T12:20:43;18.23;;;14.83;;
1577;SDS011;57623;53.608;10.004;2024-02-28T12:23:11;21.20;;;15.60;;
1577;SDS011;57623;53.608;10.004;2024-02-28T12:25:39;20.63;;;16.60;;
1577;SDS011;57623;53.608;10.004;2024-02-28T12:28:07;20.10;;;14.60;;
1577;SDS011;57623;53.608;10.004;2024-02-28T12:30:39;20.97;;;15.30;;
1577;SDS011;57623;53.608;10.004;2024-02-28T12:33:11;23.00;;;17.20;;
1577;SDS011;57623;53.608;10.004;2024-02-28T12:35:39;21.43;;;16.53;;
1577;SDS011;57623;53.608;10.004;2024-02-28T12:38:08;23.10;;;15.83;;
1577;SDS011;57623;53.608;10.004;2024-02-28T12:40:36;21.47;;;15.80;;
1577;SDS011;57623;53.608;10.004;2024-02-28T12:43:04;20.20;;;15.57;;
1577;SDS011;57623;53.608;10.004;2024-02-28T12:45:32;21.80;;;16.43;;
1577;SDS011;57623;53.608;10.004;2024-02-28T12:48:00;22.07;;;15.30;;
1577;SDS011;57623;53.608;10.004;2024-02-28T12:50:30;19.70;;;14.77;;
1577;SDS011;57623;53.608;10.004;2024-02-28T12:52:59;19.57;;;14.70;;
1577;SDS011;57623;53.608;10.004;2024-02-28T12:55:27;17.63;;;14.07;;
1577;SDS011;57623;53.608;10.004;2024-02-28T12:57:56;18.07;;;13.40;;
1577;SDS011;57623;53.608;10.004;2024-02-28T13:00:26;18.60;;;13.77;;
1577;SDS011;57623;53.608;10.004;2024-02-28T13:02:54;19.50;;;13.50;;
1577;SDS011;57623;53.608;10.004;2024-02-28T13:05:23;19.70;;;14.13;;
1577;SDS011;57623;53.608;10.004;2024-02-28T13:07:57;18.33;;;13.60;;
1577;SDS011;57623;53.608;10.004;2024-02-28T13:10:25;19.00;;;14.40;;
1577;SDS011;57623;53.608;10.004;2024-02-28T13:12:53;17.30;;;13.97;;
1577;SDS011;57623;53.608;10.004;2024-02-28T13:15:21;17.33;;;13.57;;
1577;SDS011;57623;53.608;10.004;2024-02-28T13:17:49;17.93;;;14.47;;
1577;SDS011;57623;53.608;10.004;2024-02-28T13:20:18;16.50;;;13.50;;
1577;SDS011;57623;53.608;10.004;2024-02-28T13:22:46;17.83;;;13.40;;
1577;SDS011;57623;53.608;10.004;2024-02-28T13:25:16;16.47;;;13.13;;
1577;SDS011;57623;53.608;10.004;2024-02-28T13:27:45;16.03;;;12.93;;
1577;SDS011;57623;53.608;10.004;2024-02-28T13:30:14;17.90;;;13.30;;
1577;SDS011;57623;53.608;10.004;2024-02-28T13:32:42;18.20;;;13.40;;
1577;SDS011;57623;53.608;10.004;2024-02-28T13:35:12;18.87;;;13.70;;
1577;SDS011;57623;53.608;10.004;2024-02-28T13:37:40;19.10;;;13.47;;
1577;SDS011;57623;53.608;10.004;2024-02-28T13:40:09;17.00;;;12.80;;
1577;SDS011;57623;53.608;10.004;2024-02-28T13:42:39;16.87;;;12.53;;
1577;SDS011;57623;53.608;10.004;2024-02-28T13:45:08;20.83;;;13.80;;
1577;SDS011;57623;53.608;10.004;2024-02-28T13:47:37;17.73;;;13.13;;
1577;SDS011;57623;53.608;10.004;2024-02-28T13:50:05;19.67;;;14.00;;
1577;SDS011;57623;53.608;10.004;2024-02-28T13:52:35;18.23;;;13.73;;
1577;SDS011;57623;53.608;10.004;2024-02-28T13:55:04;17.70;;;14.00;;
1577;SDS011;57623;53.608;10.004;2024-02-28T13:57:32;22.10;;;14.17;;
1577;SDS011;57623;53.608;10.004;2024-02-28T14:00:02;17.60;;;13.13;;
1577;SDS011;57623;53.608;10.004;2024-02-28T14:02:32;18.20;;;13.73;;
1577;SDS011;57623;53.608;10.004;2024-02-28T14:05:01;19.93;;;14.00;;
1577;SDS011;57623;53.608;10.004;2024-02-28T14:07:29;19.47;;;12.83;;
1577;SDS011;57623;53.608;10.004;2024-02-28T14:09:57;18.23;;;13.80;;
1577;SDS011;57623;53.608;10.004;2024-02-28T14:12:26;16.80;;;13.03;;
1577;SDS011;57623;53.608;10.004;2024-02-28T14:14:54;18.57;;;13.63;;
1577;SDS011;57623;53.608;10.004;2024-02-28T14:17:25;19.17;;;13.70;;
1577;SDS011;57623;53.608;10.004;2024-02-28T14:19:53;14.63;;;12.10;;
1577;SDS011;57623;53.608;10.004;2024-02-28T14:22:21;18.00;;;13.10;;
1577;SDS011;57623;53.608;10.004;2024-02-28T14:24:49;19.67;;;14.20;;
1577;SDS011;57623;53.608;10.004;2024-02-28T14:27:17;17.60;;;13.60;;
1577;SDS011;57623;53.608;10.004;2024-02-28T14:29:45;15.70;;;11.77;;